createdAt,value
2022-08-23T00:00:51.196Z,70
2022-08-23T00:02:50.482Z,70
2022-08-23T00:05:10.365Z,70
2022-08-23T00:06:50.185Z,70
2022-08-23T00:08:50.193Z,69
2022-08-23T00:10:50.249Z,69
2022-08-23T00:12:50.251Z,69
2022-08-23T00:14:51.646Z,69
2022-08-23T00:16:50.719Z,69
2022-08-23T00:18:50.693Z,69
2022-08-23T00:20:50.629Z,69
2022-08-23T00:22:50.621Z,70
2022-08-23T00:24:50.736Z,70
2022-08-23T00:26:50.168Z,70
2022-08-23T00:28:50.194Z,70
2022-08-23T00:30:50.054Z,71
2022-08-23T00:32:58.340Z,71
2022-08-23T00:34:50.843Z,70
2022-08-23T00:36:50.329Z,70
2022-08-23T00:38:50.203Z,70
2022-08-23T00:40:50.190Z,70
2022-08-23T00:42:50.459Z,70
2022-08-23T00:44:50.586Z,70
2022-08-23T00:46:50.911Z,70
2022-08-23T00:48:50.575Z,70
2022-08-23T00:50:50.472Z,70
2022-08-23T00:52:50.283Z,70
2022-08-23T00:54:50.302Z,70
2022-08-23T00:56:50.753Z,70
2022-08-23T00:58:50.816Z,70
2022-08-23T01:00:50.876Z,70
2022-08-23T01:02:50.782Z,71
2022-08-23T01:04:50.088Z,71
2022-08-23T01:06:50.326Z,71
2022-08-23T01:08:50.128Z,72
2022-08-23T01:10:51.238Z,71
2022-08-23T01:12:50.069Z,71
2022-08-23T01:14:51.003Z,71
2022-08-23T01:16:50.187Z,71
2022-08-23T01:18:50.339Z,72
2022-08-23T01:20:50.686Z,72
2022-08-23T01:22:50.524Z,72
2022-08-23T01:25:09.545Z,72
2022-08-23T01:26:50.269Z,72
2022-08-23T01:28:51.020Z,72
2022-08-23T01:30:50.056Z,72
2022-08-23T01:32:50.888Z,72
2022-08-23T01:34:52.532Z,72
2022-08-23T01:36:50.893Z,72
2022-08-23T01:38:50.852Z,73
2022-08-23T01:40:50.679Z,72
2022-08-23T01:42:50.715Z,72
2022-08-23T01:44:50.907Z,72
2022-08-23T01:46:58.520Z,72
2022-08-23T01:48:50.452Z,73
2022-08-23T01:50:50.459Z,73
2022-08-23T01:52:50.497Z,73
2022-08-23T01:54:50.533Z,73
2022-08-23T01:56:50.742Z,73
2022-08-23T01:58:50.508Z,73
2022-08-23T02:00:50.223Z,73
2022-08-23T02:02:50.293Z,73
2022-08-23T02:04:50.632Z,73
2022-08-23T02:06:50.783Z,73
2022-08-23T02:08:52.998Z,73
2022-08-23T02:10:50.227Z,74
2022-08-23T02:12:50.372Z,73
2022-08-23T02:14:50.471Z,73
2022-08-23T02:17:05.359Z,73
2022-08-23T02:18:50.916Z,73
2022-08-23T02:20:50.801Z,73
2022-08-23T02:22:50.992Z,74
2022-08-23T02:24:50.103Z,74
2022-08-23T02:26:57.683Z,74
2022-08-23T02:28:50.962Z,74
2022-08-23T02:30:52.250Z,74
2022-08-23T02:32:52.235Z,74
2022-08-23T02:35:06.368Z,74
2022-08-23T02:36:50.036Z,74
2022-08-23T02:38:50.137Z,74
2022-08-23T02:41:01.489Z,74
2022-08-23T02:42:50.357Z,74
2022-08-23T02:44:50.436Z,74
2022-08-23T02:46:50.793Z,74
2022-08-23T02:48:50.797Z,74
2022-08-23T02:50:50.992Z,74
2022-08-23T02:52:50.772Z,74
2022-08-23T02:54:58.747Z,74
2022-08-23T02:56:51.004Z,74
2022-08-23T02:58:55.479Z,74
2022-08-23T03:00:50.382Z,74
2022-08-23T03:02:50.476Z,74
2022-08-23T03:04:50.862Z,74
2022-08-23T03:06:50.296Z,74
2022-08-23T03:08:50.177Z,74
2022-08-23T03:10:50.242Z,74
2022-08-23T03:12:50.306Z,74
2022-08-23T03:14:50.519Z,74
2022-08-23T03:16:50.657Z,74
2022-08-23T03:18:50.538Z,74
2022-08-23T03:20:50.440Z,74
2022-08-23T03:22:55.439Z,74
2022-08-23T03:24:50.305Z,74
2022-08-23T03:26:50.570Z,74
2022-08-23T03:28:50.584Z,75
2022-08-23T03:30:50.660Z,75
2022-08-23T03:32:50.582Z,75
2022-08-23T03:34:50.141Z,75
2022-08-23T03:36:50.413Z,75
2022-08-23T03:38:50.754Z,75
2022-08-23T03:40:50.761Z,75
2022-08-23T03:42:50.706Z,77
2022-08-23T03:45:03.269Z,76
2022-08-23T03:46:50.827Z,76
2022-08-23T03:48:50.830Z,76
2022-08-23T03:50:55.333Z,76
2022-08-23T03:52:50.128Z,76
2022-08-23T03:54:50.157Z,76
2022-08-23T03:56:50.465Z,76
2022-08-23T03:58:50.411Z,77
2022-08-23T04:00:50.281Z,77
2022-08-23T04:02:50.112Z,77
2022-08-23T04:04:50.574Z,77
2022-08-23T04:06:50.653Z,76
2022-08-23T04:08:50.729Z,76
2022-08-23T04:10:50.785Z,76
2022-08-23T04:12:50.705Z,77
2022-08-23T04:14:50.704Z,77
2022-08-23T04:16:52.210Z,76
2022-08-23T04:18:50.454Z,76
2022-08-23T04:20:50.330Z,76
2022-08-23T04:22:50.368Z,76
2022-08-23T04:24:50.239Z,76
2022-08-23T04:26:50.351Z,76
2022-08-23T04:28:50.394Z,76
2022-08-23T04:30:51.624Z,76
2022-08-23T04:32:50.534Z,76
2022-08-23T04:34:52.053Z,76
2022-08-23T04:36:55.950Z,76
2022-08-23T04:38:50.945Z,76
2022-08-23T04:40:50.818Z,76
2022-08-23T04:42:50.721Z,76
2022-08-23T04:44:50.626Z,76
2022-08-23T04:46:50.866Z,76
2022-08-23T04:48:50.748Z,76
2022-08-23T04:50:50.562Z,76
2022-08-23T04:52:50.560Z,76
2022-08-23T04:54:50.441Z,77
2022-08-23T04:56:52.467Z,77
2022-08-23T04:58:50.397Z,77
2022-08-23T05:00:52.523Z,77
2022-08-23T05:02:50.329Z,77
2022-08-23T05:04:50.603Z,77
2022-08-23T05:06:50.927Z,77
2022-08-23T05:08:52.113Z,77
2022-08-23T05:10:50.808Z,78
2022-08-23T05:12:50.727Z,78
2022-08-23T05:14:50.641Z,78
2022-08-23T05:16:50.737Z,78
2022-08-23T05:18:50.729Z,78
2022-08-23T05:20:50.710Z,78
2022-08-23T05:22:50.903Z,78
2022-08-23T05:24:50.870Z,78
2022-08-23T05:26:50.948Z,78
2022-08-23T05:28:50.905Z,78
2022-08-23T05:30:57.681Z,78
2022-08-23T05:32:50.629Z,79
2022-08-23T05:34:50.166Z,79
2022-08-23T05:36:56.880Z,78
2022-08-23T05:38:50.877Z,78
2022-08-23T05:41:00.005Z,78
2022-08-23T05:42:50.057Z,79
2022-08-23T05:44:51.343Z,79
2022-08-23T05:46:51.173Z,79
2022-08-23T05:48:50.456Z,79
2022-08-23T05:50:50.317Z,79
2022-08-23T05:52:51.772Z,79
2022-08-23T05:54:50.628Z,79
2022-08-23T05:56:51.037Z,78
2022-08-23T05:58:50.955Z,78
2022-08-23T06:00:51.214Z,78
2022-08-23T06:02:50.150Z,78
2022-08-23T06:04:57.927Z,78
2022-08-23T06:06:50.162Z,78
2022-08-23T06:08:50.227Z,78
2022-08-23T06:10:50.232Z,78
2022-08-23T06:12:50.214Z,78
2022-08-23T06:14:52.963Z,78
2022-08-23T06:16:56.812Z,79
2022-08-23T06:18:50.724Z,78
2022-08-23T06:20:52.867Z,78
2022-08-23T06:22:50.915Z,78
2022-08-23T06:24:50.785Z,78
2022-08-23T06:26:50.987Z,78
2022-08-23T06:28:52.246Z,77
2022-08-23T06:30:50.484Z,77
2022-08-23T06:32:50.864Z,77
2022-08-23T06:35:14.798Z,77
2022-08-23T06:36:50.745Z,76
2022-08-23T06:38:50.785Z,76
2022-08-23T06:40:50.605Z,76
2022-08-23T06:42:50.553Z,76
2022-08-23T06:44:50.354Z,76
2022-08-23T06:46:50.967Z,76
2022-08-23T06:48:50.913Z,76
2022-08-23T06:50:50.793Z,76
2022-08-23T06:52:51.032Z,76
2022-08-23T06:54:50.997Z,76
2022-08-23T06:56:50.261Z,75
2022-08-23T06:58:50.311Z,74
2022-08-23T07:00:58.181Z,74
2022-08-23T07:02:51.448Z,74
2022-08-23T07:04:50.933Z,73
2022-08-23T07:06:50.322Z,73
2022-08-23T07:08:50.360Z,72
2022-08-23T07:10:50.211Z,72
2022-08-23T07:12:50.989Z,72
2022-08-23T07:14:51.012Z,72
2022-08-23T07:16:50.304Z,71
2022-08-23T07:18:50.354Z,71
2022-08-23T07:20:50.392Z,71
2022-08-23T07:22:50.752Z,71
2022-08-23T07:24:50.747Z,71
2022-08-23T07:26:50.959Z,71
2022-08-23T07:28:50.959Z,70
2022-08-23T07:30:50.876Z,70
2022-08-23T07:32:50.871Z,70
2022-08-23T07:34:50.219Z,70
2022-08-23T07:36:50.363Z,70
2022-08-23T07:38:52.208Z,70
2022-08-23T07:40:56.056Z,70
2022-08-23T07:42:50.851Z,70
2022-08-23T07:44:53.922Z,69
2022-08-23T07:46:50.339Z,69
2022-08-23T07:48:55.590Z,69
2022-08-23T07:51:02.453Z,69
2022-08-23T07:52:50.226Z,69
2022-08-23T07:54:50.331Z,69
2022-08-23T07:56:50.476Z,68
2022-08-23T07:58:50.363Z,68
2022-08-23T08:00:50.376Z,66
2022-08-23T08:02:50.687Z,65
2022-08-23T08:04:50.142Z,66
2022-08-23T08:07:21.556Z,66
2022-08-23T08:08:50.738Z,66
2022-08-23T08:10:50.683Z,65
2022-08-23T08:12:50.599Z,64
2022-08-23T08:14:50.539Z,64
2022-08-23T08:16:50.657Z,64
2022-08-23T08:18:50.530Z,63
2022-08-23T08:20:50.558Z,63
2022-08-23T08:23:00.996Z,64
2022-08-23T08:24:51.295Z,62
2022-08-23T08:26:50.470Z,62
2022-08-23T08:28:50.345Z,62
2022-08-23T08:30:50.205Z,62
2022-08-23T08:32:50.152Z,61
2022-08-23T08:34:50.958Z,60
2022-08-23T08:36:50.626Z,61
2022-08-23T08:39:01.244Z,61
2022-08-23T08:40:50.176Z,61
2022-08-23T08:42:50.213Z,61
2022-08-23T08:44:50.349Z,56
2022-08-23T08:46:51.006Z,56
2022-08-23T08:48:50.086Z,58
2022-08-23T08:50:50.240Z,58
2022-08-23T08:52:50.274Z,58
2022-08-23T08:54:56.133Z,57
2022-08-23T08:56:50.261Z,57
2022-08-23T08:58:50.249Z,57
2022-08-23T09:00:57.134Z,57
2022-08-23T09:02:51.271Z,56
2022-08-23T09:04:50.807Z,54
2022-08-23T09:06:50.970Z,54
2022-08-23T09:08:50.972Z,55
2022-08-23T09:10:50.774Z,53
2022-08-23T09:12:50.831Z,53
2022-08-23T09:14:51.022Z,53
2022-08-23T09:16:50.459Z,51
2022-08-23T09:18:50.304Z,52
2022-08-23T09:20:50.302Z,51
2022-08-23T09:22:50.161Z,51
2022-08-23T09:24:50.072Z,51
2022-08-23T09:26:50.340Z,52
2022-08-23T09:28:50.053Z,52
2022-08-23T09:30:50.499Z,52
2022-08-23T09:32:50.365Z,51
2022-08-23T09:34:50.811Z,51
2022-08-23T09:36:52.842Z,52
2022-08-23T09:38:50.692Z,52
2022-08-23T09:40:50.572Z,51
2022-08-23T09:42:50.463Z,51
2022-08-23T09:44:50.821Z,49
2022-08-23T09:46:50.120Z,46
2022-08-23T09:48:50.193Z,48
2022-08-23T09:50:50.123Z,47
2022-08-23T09:52:50.917Z,46
2022-08-23T09:54:50.751Z,46
2022-08-23T09:56:50.937Z,46
2022-08-23T09:58:50.800Z,46
2022-08-23T10:00:50.578Z,46
2022-08-23T10:02:51.024Z,46
2022-08-23T10:04:50.832Z,46
2022-08-23T10:06:50.084Z,47
2022-08-23T10:08:53.397Z,47
2022-08-23T10:10:51.695Z,45
2022-08-23T10:12:51.472Z,45
2022-08-23T10:14:50.832Z,46
2022-08-23T10:16:50.051Z,47
2022-08-23T10:18:50.955Z,47
2022-08-23T10:20:50.755Z,45
2022-08-23T10:22:50.728Z,45
2022-08-23T10:24:50.730Z,46
2022-08-23T10:26:50.978Z,44
2022-08-23T10:28:51.027Z,43
2022-08-23T10:30:50.923Z,43
2022-08-23T10:32:50.939Z,44
2022-08-23T10:34:51.457Z,44
2022-08-23T10:36:51.681Z,45
2022-08-23T10:38:50.743Z,43
2022-08-23T10:40:50.697Z,43
2022-08-23T10:42:50.818Z,43
2022-08-23T10:44:51.134Z,43
2022-08-23T10:46:50.552Z,43
2022-08-23T10:48:50.379Z,44
2022-08-23T10:50:56.777Z,44
2022-08-23T10:52:50.920Z,44
2022-08-23T10:54:50.824Z,44
2022-08-23T10:56:51.891Z,44
2022-08-23T10:58:52.066Z,43
2022-08-23T11:00:50.899Z,43
2022-08-23T11:02:51.313Z,43
2022-08-23T11:04:53.145Z,43
2022-08-23T11:06:50.318Z,43
2022-08-23T11:08:50.227Z,43
2022-08-23T11:10:57.529Z,43
2022-08-23T11:12:50.350Z,43
2022-08-23T11:14:50.230Z,43
2022-08-23T11:16:50.362Z,43
2022-08-23T11:18:50.256Z,44
2022-08-23T11:20:50.170Z,43
2022-08-23T11:22:50.929Z,43
2022-08-23T11:24:50.939Z,43
2022-08-23T11:26:50.210Z,43
2022-08-23T11:28:50.294Z,43
2022-08-23T11:30:51.076Z,43
2022-08-23T11:32:50.205Z,43
2022-08-23T11:34:50.669Z,43
2022-08-23T11:36:50.920Z,43
2022-08-23T11:38:50.864Z,43
2022-08-23T11:40:50.940Z,43
2022-08-23T11:42:50.765Z,42
2022-08-23T11:44:50.767Z,42
2022-08-23T11:46:50.067Z,42
2022-08-23T11:48:50.997Z,42
2022-08-23T11:51:00.163Z,42
2022-08-23T11:52:50.656Z,40
2022-08-23T11:54:50.948Z,40
2022-08-23T11:56:50.320Z,41
2022-08-23T11:58:50.173Z,41
2022-08-23T12:00:51.072Z,41
2022-08-23T12:02:51.682Z,40
2022-08-23T12:04:51.019Z,41
2022-08-23T12:06:53.384Z,41
2022-08-23T12:08:50.527Z,41
2022-08-23T12:10:50.398Z,41
2022-08-23T12:12:50.639Z,41
2022-08-23T12:14:50.921Z,41
2022-08-23T12:16:57.203Z,42
2022-08-23T12:18:51.048Z,42
2022-08-23T12:20:50.980Z,40
2022-08-23T12:22:50.882Z,41
2022-08-23T12:24:53.316Z,41
2022-08-23T12:26:50.653Z,40
2022-08-23T12:28:50.486Z,40
2022-08-23T12:30:50.823Z,40
2022-08-23T12:32:50.514Z,41
2022-08-23T12:34:54.959Z,41
2022-08-23T12:36:50.701Z,41
2022-08-23T12:38:50.949Z,41
2022-08-23T12:40:54.977Z,39
2022-08-23T12:42:50.893Z,39
2022-08-23T12:44:50.894Z,39
2022-08-23T12:46:52.733Z,39
2022-08-23T12:48:50.706Z,39
2022-08-23T12:50:50.698Z,38
2022-08-23T12:52:53.338Z,38
2022-08-23T12:54:50.253Z,38
2022-08-23T12:56:50.739Z,37
2022-08-23T12:58:53.297Z,38
2022-08-23T13:00:50.341Z,38
2022-08-23T13:02:50.859Z,38
2022-08-23T13:04:50.239Z,38
2022-08-23T13:06:50.340Z,37
2022-08-23T13:08:50.343Z,37
2022-08-23T13:10:50.296Z,37
2022-08-23T13:12:54.727Z,38
2022-08-23T13:14:50.889Z,38
2022-08-23T13:16:50.081Z,38
2022-08-23T13:18:50.167Z,38
2022-08-23T13:20:50.259Z,38
2022-08-23T13:22:50.366Z,37
2022-08-23T13:25:31.815Z,37
2022-08-23T13:26:50.997Z,38
2022-08-23T13:28:50.898Z,37
2022-08-23T13:30:50.924Z,37
2022-08-23T13:32:51.658Z,35
2022-08-23T13:34:51.192Z,36
2022-08-23T13:36:54.563Z,35
2022-08-23T13:38:50.729Z,35
2022-08-23T13:40:50.897Z,35
2022-08-23T13:42:51.698Z,36
2022-08-23T13:44:50.559Z,36
2022-08-23T13:46:50.750Z,35
2022-08-23T13:48:50.547Z,35
2022-08-23T13:50:50.522Z,35
2022-08-23T13:53:20.774Z,35
2022-08-23T13:54:53.615Z,35
2022-08-23T13:56:50.869Z,34
2022-08-23T13:58:50.102Z,35
2022-08-23T14:01:01.209Z,35
2022-08-23T14:02:50.189Z,34
2022-08-23T14:04:51.053Z,34
2022-08-23T14:06:50.578Z,35
2022-08-23T14:08:50.509Z,35
2022-08-23T14:10:50.432Z,35
2022-08-23T14:12:50.216Z,35
2022-08-23T14:14:50.264Z,35
2022-08-23T14:16:50.548Z,35
2022-08-23T14:20:32.240Z,35
2022-08-23T14:20:52.102Z,35
2022-08-23T14:22:50.969Z,35
2022-08-23T14:24:50.072Z,35
2022-08-23T14:26:53.282Z,35
2022-08-23T14:28:54.901Z,34
2022-08-23T14:30:51.156Z,35
2022-08-23T14:32:51.088Z,35
2022-08-23T14:34:50.377Z,35
2022-08-23T14:38:02.271Z,35
2022-08-23T14:38:50.672Z,34
2022-08-23T14:40:50.414Z,34
2022-08-23T14:42:50.602Z,35
2022-08-23T14:44:50.433Z,35
2022-08-23T14:46:50.661Z,35
2022-08-23T14:48:50.454Z,35
2022-08-23T14:50:50.721Z,35
2022-08-23T14:52:50.644Z,35
2022-08-23T14:54:50.710Z,35
2022-08-23T14:56:50.857Z,36
2022-08-23T14:58:50.655Z,36
2022-08-23T15:00:50.756Z,35
2022-08-23T15:02:50.580Z,35
2022-08-23T15:04:50.062Z,35
2022-08-23T15:07:19.865Z,35
2022-08-23T15:08:50.965Z,35
2022-08-23T15:13:32.596Z,35
2022-08-23T15:14:50.260Z,35
2022-08-23T15:16:51.075Z,35
2022-08-23T15:18:50.854Z,34
2022-08-23T15:20:53.065Z,34
2022-08-23T15:22:56.668Z,34
2022-08-23T15:24:50.692Z,35
2022-08-23T15:26:50.085Z,35
2022-08-23T15:28:50.092Z,35
2022-08-23T15:30:51.222Z,35
2022-08-23T15:32:57.350Z,35
2022-08-23T15:34:51.028Z,35
2022-08-23T15:36:50.751Z,35
2022-08-23T15:38:50.694Z,35
2022-08-23T15:40:50.554Z,35
2022-08-23T15:42:50.429Z,35
2022-08-23T15:44:51.490Z,36
2022-08-23T15:46:50.837Z,36
2022-08-23T15:48:50.580Z,36
2022-08-23T15:50:50.386Z,36
2022-08-23T15:52:50.342Z,36
2022-08-23T15:54:50.162Z,36
2022-08-23T15:56:50.462Z,36
2022-08-23T15:58:50.302Z,36
2022-08-23T16:00:51.282Z,36
2022-08-23T16:03:21.500Z,36
2022-08-23T16:04:50.709Z,36
2022-08-23T16:06:51.478Z,36
2022-08-23T16:08:50.174Z,36
2022-08-23T16:10:50.333Z,36
2022-08-23T16:12:50.206Z,36
2022-08-23T16:14:50.382Z,35
2022-08-23T16:16:50.885Z,36
2022-08-23T16:18:52.280Z,36
2022-08-23T16:20:55.043Z,36
2022-08-23T16:22:50.709Z,36
2022-08-23T16:24:50.629Z,37
2022-08-23T16:26:51.012Z,37
2022-08-23T16:28:50.961Z,37
2022-08-23T16:30:51.085Z,37
2022-08-23T16:32:50.247Z,37
2022-08-23T16:34:50.571Z,37
2022-08-23T16:36:51.154Z,37
2022-08-23T16:38:50.184Z,37
2022-08-23T16:40:50.265Z,37
2022-08-23T16:42:50.226Z,37
2022-08-23T16:44:51.029Z,38
2022-08-23T16:46:50.398Z,38
2022-08-23T16:48:50.171Z,37
2022-08-23T16:50:50.165Z,37
2022-08-23T16:52:50.934Z,38
2022-08-23T16:54:50.190Z,38
2022-08-23T16:56:50.263Z,38
2022-08-23T16:58:50.598Z,38
2022-08-23T17:00:51.001Z,38
2022-08-23T17:02:50.509Z,38
2022-08-23T17:04:53.333Z,38
2022-08-23T17:06:50.557Z,38
2022-08-23T17:08:50.514Z,38
2022-08-23T17:10:50.506Z,38
2022-08-23T17:12:50.529Z,39
2022-08-23T17:14:50.355Z,39
2022-08-23T17:16:50.765Z,39
2022-08-23T17:18:54.855Z,39
2022-08-23T17:20:50.929Z,39
2022-08-23T17:22:51.838Z,39
2022-08-23T17:24:53.867Z,39
2022-08-23T17:26:50.109Z,39
2022-08-23T17:28:50.136Z,39
2022-08-23T17:30:51.005Z,40
2022-08-23T17:32:50.959Z,40
2022-08-23T17:34:50.156Z,40
2022-08-23T17:36:50.427Z,40
2022-08-23T17:38:50.381Z,41
2022-08-23T17:40:50.307Z,41
2022-08-23T17:42:50.185Z,41
2022-08-23T17:44:50.183Z,42
2022-08-23T17:46:50.683Z,42
2022-08-23T17:48:50.782Z,42
2022-08-23T17:50:50.720Z,42
2022-08-23T17:52:50.911Z,42
2022-08-23T17:54:50.861Z,42
2022-08-23T17:56:51.291Z,42
2022-08-23T17:58:50.131Z,42
2022-08-23T18:00:50.464Z,42
2022-08-23T18:02:50.508Z,43
2022-08-23T18:04:54.136Z,43
2022-08-23T18:06:50.382Z,43
2022-08-23T18:08:50.261Z,43
2022-08-23T18:10:50.361Z,43
2022-08-23T18:12:50.400Z,43
2022-08-23T18:14:50.194Z,43
2022-08-23T18:16:50.673Z,43
2022-08-23T18:18:50.539Z,43
2022-08-23T18:20:50.513Z,44
2022-08-23T18:22:50.410Z,44
2022-08-23T18:24:50.468Z,44
2022-08-23T18:26:50.939Z,45
2022-08-23T18:28:50.935Z,45
2022-08-23T18:30:50.011Z,46
2022-08-23T18:32:50.917Z,46
2022-08-23T18:34:50.259Z,45
2022-08-23T18:36:50.602Z,45
2022-08-23T18:38:50.544Z,46
2022-08-23T18:40:50.581Z,46
2022-08-23T18:42:50.466Z,46
2022-08-23T18:44:50.299Z,45
2022-08-23T18:46:50.653Z,46
2022-08-23T18:48:54.360Z,45
2022-08-23T18:50:50.328Z,45
2022-08-23T18:52:50.148Z,46
2022-08-23T18:54:51.782Z,46
2022-08-23T18:56:50.158Z,46
2022-08-23T18:58:50.188Z,46
2022-08-23T19:00:52.145Z,46
2022-08-23T19:02:50.390Z,47
2022-08-23T19:04:50.953Z,47
2022-08-23T19:06:54.947Z,48
2022-08-23T19:08:50.796Z,48
2022-08-23T19:10:50.703Z,49
2022-08-23T19:12:54.982Z,50
2022-08-23T19:14:50.126Z,50
2022-08-23T19:16:50.506Z,50
2022-08-23T19:18:50.364Z,50
2022-08-23T19:20:50.329Z,50
2022-08-23T19:22:50.140Z,51
2022-08-23T19:24:50.086Z,51
2022-08-23T19:26:50.061Z,52
2022-08-23T19:28:50.827Z,52
2022-08-23T19:30:50.735Z,52
2022-08-23T19:32:50.817Z,53
2022-08-23T19:34:50.153Z,53
2022-08-23T19:37:02.115Z,52
2022-08-23T19:38:50.274Z,52
2022-08-23T19:40:50.434Z,52
2022-08-23T19:42:50.564Z,53
2022-08-23T19:44:50.470Z,53
2022-08-23T19:46:50.745Z,54
2022-08-23T19:48:50.520Z,54
2022-08-23T19:50:50.803Z,54
2022-08-23T19:52:51.101Z,55
2022-08-23T19:54:50.314Z,54
2022-08-23T19:56:50.352Z,54
2022-08-23T19:58:50.416Z,54
2022-08-23T20:00:50.664Z,54
2022-08-23T20:02:50.665Z,56
2022-08-23T20:04:50.957Z,55
2022-08-23T20:06:50.413Z,55
2022-08-23T20:08:50.559Z,55
2022-08-23T20:10:50.466Z,56
2022-08-23T20:12:50.234Z,57
2022-08-23T20:14:50.200Z,57
2022-08-23T20:16:51.082Z,57
2022-08-23T20:18:50.995Z,57
2022-08-23T20:20:50.924Z,57
2022-08-23T20:22:50.125Z,57
2022-08-23T20:24:53.797Z,57
2022-08-23T20:26:50.911Z,57
2022-08-23T20:29:00.821Z,58
2022-08-23T20:30:50.683Z,58
2022-08-23T20:32:50.510Z,57
2022-08-23T20:34:50.863Z,57
2022-08-23T20:36:50.977Z,57
2022-08-23T20:38:50.882Z,57
2022-08-23T20:40:55.208Z,58
2022-08-23T20:42:50.286Z,58
2022-08-23T20:44:51.012Z,57
2022-08-23T20:47:03.474Z,57
2022-08-23T20:48:50.577Z,57
2022-08-23T20:50:50.627Z,58
2022-08-23T20:52:50.547Z,58
2022-08-23T20:54:50.594Z,58
2022-08-23T20:56:50.744Z,58
2022-08-23T20:58:50.761Z,58
2022-08-23T21:00:51.327Z,58
2022-08-23T21:02:50.499Z,58
2022-08-23T21:04:51.531Z,59
2022-08-23T21:06:57.487Z,61
2022-08-23T21:08:54.360Z,61
2022-08-23T21:10:50.178Z,62
2022-08-23T21:12:50.223Z,62
2022-08-23T21:14:50.142Z,62
2022-08-23T21:16:50.392Z,62
2022-08-23T21:18:50.464Z,62
2022-08-23T21:20:50.743Z,63
2022-08-23T21:22:50.712Z,63
2022-08-23T21:24:50.578Z,63
2022-08-23T21:26:50.841Z,63
2022-08-23T21:28:50.855Z,63
2022-08-23T21:30:50.924Z,63
2022-08-23T21:32:50.666Z,63
2022-08-23T21:34:50.046Z,63
2022-08-23T21:36:50.925Z,63
2022-08-23T21:38:53.104Z,63
2022-08-23T21:40:50.922Z,64
2022-08-23T21:42:50.850Z,64
2022-08-23T21:44:50.821Z,64
2022-08-23T21:46:50.312Z,63
2022-08-23T21:48:50.073Z,64
2022-08-23T21:50:50.130Z,64
2022-08-23T21:53:00.944Z,64
2022-08-23T21:54:50.888Z,64
2022-08-23T21:56:50.096Z,63
2022-08-23T21:58:51.374Z,63
2022-08-23T22:00:50.162Z,63
2022-08-23T22:02:50.699Z,64
2022-08-23T22:04:50.307Z,63
2022-08-23T22:07:01.360Z,62
2022-08-23T22:08:50.133Z,62
2022-08-23T22:10:58.780Z,62
2022-08-23T22:12:50.898Z,62
2022-08-23T22:14:50.056Z,62
2022-08-23T22:16:56.017Z,62
2022-08-23T22:18:50.958Z,62
2022-08-23T22:20:50.903Z,62
2022-08-23T22:22:50.942Z,62
2022-08-23T22:24:50.917Z,62
2022-08-23T22:26:50.208Z,62
2022-08-23T22:28:50.186Z,62
2022-08-23T22:30:50.538Z,62
2022-08-23T22:32:50.165Z,62
2022-08-23T22:34:50.480Z,63
2022-08-23T22:36:53.212Z,63
2022-08-23T22:38:51.010Z,63
2022-08-23T22:40:50.075Z,63
2022-08-23T22:42:52.214Z,63
2022-08-23T22:44:50.149Z,63
2022-08-23T22:46:50.222Z,63
2022-08-23T22:48:50.202Z,63
2022-08-23T22:50:51.007Z,63
2022-08-23T22:52:50.988Z,63
2022-08-23T22:54:51.024Z,63
2022-08-23T22:56:50.091Z,63
2022-08-23T22:58:53.283Z,63
2022-08-23T23:00:50.077Z,63
2022-08-23T23:02:51.575Z,63
2022-08-23T23:04:51.038Z,63
2022-08-23T23:06:50.303Z,63
2022-08-23T23:08:50.270Z,64
2022-08-23T23:10:50.265Z,64
2022-08-23T23:12:50.286Z,64
2022-08-23T23:14:50.218Z,64
2022-08-23T23:16:51.040Z,64
2022-08-23T23:18:51.015Z,64
2022-08-23T23:20:50.900Z,65
2022-08-23T23:22:50.678Z,68
2022-08-23T23:24:50.723Z,66
2022-08-23T23:26:51.019Z,66
2022-08-23T23:28:50.034Z,65
2022-08-23T23:30:51.469Z,65
2022-08-23T23:32:50.604Z,67
2022-08-23T23:34:50.225Z,67
2022-08-23T23:36:50.596Z,67
2022-08-23T23:38:50.478Z,69
2022-08-23T23:40:50.421Z,68
2022-08-23T23:42:50.254Z,67
2022-08-23T23:44:50.444Z,67
2022-08-23T23:46:50.550Z,67
2022-08-23T23:48:50.498Z,67
2022-08-23T23:50:50.510Z,68
2022-08-23T23:52:50.491Z,67
2022-08-23T23:54:50.360Z,67
2022-08-23T23:56:50.663Z,68
2022-08-23T23:58:50.516Z,68
